sensor_id;sensor_type;location;lat;lon;timestamp;pressure;altitude;pressure_sealevel;temperature;humidity
46430;BME280;32131;53.454;-6.180;2023-02-14T12:08:34;102315.38;;;12.06;96.47
46430;BME280;32131;53.454;-6.180;2023-02-14T12:14:51;102310.09;;;12.29;93.96
46430;BME280;32131;53.454;-6.180;2023-02-14T12:17:28;102315.44;;;12.33;93.26
46430;BME280;32131;53.454;-6.180;2023-02-14T12:20:03;102296.38;;;12.58;91.58
46430;BME280;32131;53.454;-6.180;2023-02-14T12:22:39;102290.06;;;12.78;89.94
46430;BME280;32131;53.454;-6.180;2023-02-14T12:25:15;102294.31;;;13.03;88.86
46430;BME280;32131;53.454;-6.180;2023-02-14T12:27:47;102287.97;;;13.24;87.25
46430;BME280;32131;53.454;-6.180;2023-02-14T12:30:19;102277.97;;;13.36;86.04
46430;BME280;32131;53.454;-6.180;2023-02-14T12:32:49;102272.13;;;13.43;85.15
46430;BME280;32131;53.454;-6.180;2023-02-14T12:35:21;102283.94;;;13.33;84.16
46430;BME280;32131;53.454;-6.180;2023-02-14T12:38:01;102282.50;;;13.14;84.46
46430;BME280;32131;53.454;-6.180;2023-02-14T12:40:44;102278.34;;;12.90;84.95
46430;BME280;32131;53.454;-6.180;2023-02-14T12:43:26;102265.75;;;12.74;85.47
46430;BME280;32131;53.454;-6.180;2023-02-14T12:46:14;102262.94;;;12.66;85.65
46430;BME280;32131;53.454;-6.180;2023-02-14T12:48:57;102264.47;;;12.60;85.80
46430;BME280;32131;53.454;-6.180;2023-02-14T12:51:35;102260.22;;;12.62;85.91
46430;BME280;32131;53.454;-6.180;2023-02-14T12:54:31;102252.50;;;12.65;85.83
46430;BME280;32131;53.454;-6.180;2023-02-14T12:57:16;102251.69;;;12.66;85.06
46430;BME280;32131;53.454;-6.180;2023-02-14T12:59:57;102253.56;;;12.70;84.71
46430;BME280;32131;53.454;-6.180;2023-02-14T13:03:02;102245.94;;;12.74;84.09
46430;BME280;32131;53.454;-6.180;2023-02-14T13:05:49;102246.97;;;12.81;83.51
46430;BME280;32131;53.454;-6.180;2023-02-14T13:08:33;102245.47;;;12.89;82.76
46430;BME280;32131;53.454;-6.180;2023-02-14T13:11:14;102256.97;;;12.98;82.29
46430;BME280;32131;53.454;-6.180;2023-02-14T13:13:53;102244.09;;;13.01;81.68
46430;BME280;32131;53.454;-6.180;2023-02-14T13:16:34;102238.13;;;13.03;81.05
46430;BME280;32131;53.454;-6.180;2023-02-14T13:19:11;102233.72;;;13.01;80.63
46430;BME280;32131;53.454;-6.180;2023-02-14T13:21:43;102233.63;;;12.98;80.81
46430;BME280;32131;53.454;-6.180;2023-02-14T13:24:15;102230.13;;;12.96;81.06
46430;BME280;32131;53.454;-6.180;2023-02-14T13:26:48;102239.56;;;12.94;81.28
46430;BME280;32131;53.454;-6.180;2023-02-14T13:29:22;102233.31;;;12.87;81.19
46430;BME280;32131;53.454;-6.180;2023-02-14T13:31:59;102229.63;;;12.79;81.33
46430;BME280;32131;53.454;-6.180;2023-02-14T13:34:40;102228.53;;;12.72;81.50
46430;BME280;32131;53.454;-6.180;2023-02-14T13:37:25;102237.59;;;12.56;81.64
46430;BME280;32131;53.454;-6.180;2023-02-14T13:40:03;102234.09;;;12.55;81.73
46430;BME280;32131;53.454;-6.180;2023-02-14T13:42:54;102228.84;;;12.52;81.74
46430;BME280;32131;53.454;-6.180;2023-02-14T13:48:34;102222.22;;;12.62;81.65
46430;BME280;32131;53.454;-6.180;2023-02-14T13:51:06;102226.56;;;12.63;81.61
46430;BME280;32131;53.454;-6.180;2023-02-14T13:53:39;102216.75;;;12.53;81.66
46430;BME280;32131;53.454;-6.180;2023-02-14T13:56:31;102212.19;;;12.44;82.04
46430;BME280;32131;53.454;-6.180;2023-02-14T13:59:03;102209.13;;;12.30;82.67
46430;BME280;32131;53.454;-6.180;2023-02-14T14:01:39;102217.25;;;12.14;83.16
46430;BME280;32131;53.454;-6.180;2023-02-14T14:04:34;102207.22;;;11.97;83.92
46430;BME280;32131;53.454;-6.180;2023-02-14T14:07:20;102219.88;;;11.89;84.55
46430;BME280;32131;53.454;-6.180;2023-02-14T14:10:09;102209.28;;;11.82;85.10
46430;BME280;32131;53.454;-6.180;2023-02-14T14:12:39;102210.75;;;11.75;85.50
46430;BME280;32131;53.454;-6.180;2023-02-14T14:15:16;102220.16;;;11.73;85.92
46430;BME280;32131;53.454;-6.180;2023-02-14T14:17:47;102207.31;;;11.74;86.36
46430;BME280;32131;53.454;-6.180;2023-02-14T14:20:45;102200.41;;;11.75;86.49
46430;BME280;32131;53.454;-6.180;2023-02-14T14:23:32;102192.81;;;11.79;86.40
46430;BME280;32131;53.454;-6.180;2023-02-14T14:26:28;102185.19;;;11.84;86.28
46430;BME280;32131;53.454;-6.180;2023-02-14T14:28:57;102181.19;;;11.94;85.57
46430;BME280;32131;53.454;-6.180;2023-02-14T14:31:26;102180.75;;;12.06;85.08
46430;BME280;32131;53.454;-6.180;2023-02-14T14:33:59;102184.75;;;12.23;83.90
46430;BME280;32131;53.454;-6.180;2023-02-14T14:36:29;102182.63;;;12.39;83.20
46430;BME280;32131;53.454;-6.180;2023-02-14T14:38:57;102182.09;;;12.49;82.08
46430;BME280;32131;53.454;-6.180;2023-02-14T14:41:45;102183.31;;;12.61;80.14
46430;BME280;32131;53.454;-6.180;2023-02-14T14:44:46;102164.75;;;12.76;79.13
46430;BME280;32131;53.454;-6.180;2023-02-14T14:47:20;102159.81;;;12.85;78.37
46430;BME280;32131;53.454;-6.180;2023-02-14T14:50:12;102163.47;;;12.92;77.53
46430;BME280;32131;53.454;-6.180;2023-02-14T14:56:28;102152.16;;;12.89;76.25
46430;BME280;32131;53.454;-6.180;2023-02-14T14:59:31;102155.78;;;12.95;76.20
46430;BME280;32131;53.454;-6.180;2023-02-14T15:02:18;102169.56;;;12.94;76.08
46430;BME280;32131;53.454;-6.180;2023-02-14T15:05:27;102161.50;;;12.83;75.72
46430;BME280;32131;53.454;-6.180;2023-02-14T15:08:29;102152.66;;;12.76;76.14
46430;BME280;32131;53.454;-6.180;2023-02-14T15:11:21;102151.47;;;12.65;75.36
46430;BME280;32131;53.454;-6.180;2023-02-14T15:14:16;102144.16;;;12.51;75.76
46430;BME280;32131;53.454;-6.180;2023-02-14T15:16:49;102149.03;;;12.40;75.78
46430;BME280;32131;53.454;-6.180;2023-02-14T15:19:22;102153.09;;;12.32;75.58
46430;BME280;32131;53.454;-6.180;2023-02-14T15:22:01;102158.97;;;12.26;75.85
46430;BME280;32131;53.454;-6.180;2023-02-14T15:24:33;102156.13;;;12.19;76.02
46430;BME280;32131;53.454;-6.180;2023-02-14T15:27:12;102159.38;;;12.13;76.38
46430;BME280;32131;53.454;-6.180;2023-02-14T15:29:52;102146.38;;;12.10;76.67
46430;BME280;32131;53.454;-6.180;2023-02-14T15:32:20;102152.25;;;12.06;76.74
46430;BME280;32131;53.454;-6.180;2023-02-14T15:34:50;102149.59;;;12.03;76.88
46430;BME280;32131;53.454;-6.180;2023-02-14T15:37:20;102149.75;;;12.07;76.84
46430;BME280;32131;53.454;-6.180;2023-02-14T15:39:52;102150.56;;;12.06;76.61
46430;BME280;32131;53.454;-6.180;2023-02-14T15:42:24;102148.03;;;12.08;76.26
46430;BME280;32131;53.454;-6.180;2023-02-14T15:45:13;102136.72;;;12.06;75.95
46430;BME280;32131;53.454;-6.180;2023-02-14T15:47:43;102138.44;;;12.05;76.01
46430;BME280;32131;53.454;-6.180;2023-02-14T15:50:16;102140.25;;;12.08;76.02
46430;BME280;32131;53.454;-6.180;2023-02-14T15:52:48;102133.25;;;12.04;76.26
46430;BME280;32131;53.454;-6.180;2023-02-14T15:55:22;102133.16;;;12.02;76.25
46430;BME280;32131;53.454;-6.180;2023-02-14T15:57:55;102127.09;;;12.00;76.13
46430;BME280;32131;53.454;-6.180;2023-02-14T16:00:25;102128.06;;;12.04;76.02
46430;BME280;32131;53.454;-6.180;2023-02-14T16:02:59;102129.06;;;12.09;75.78
46430;BME280;32131;53.454;-6.180;2023-02-14T16:05:29;102125.81;;;12.15;75.62
46430;BME280;32131;53.454;-6.180;2023-02-14T16:08:00;102124.19;;;12.18;75.43
46430;BME280;32131;53.454;-6.180;2023-02-14T16:10:33;102126.94;;;12.24;75.40
46430;BME280;32131;53.454;-6.180;2023-02-14T16:13:04;102121.13;;;12.32;75.09
46430;BME280;32131;53.454;-6.180;2023-02-14T16:15:36;102130.22;;;12.46;74.62
46430;BME280;32131;53.454;-6.180;2023-02-14T16:18:17;102131.47;;;12.59;74.61
46430;BME280;32131;53.454;-6.180;2023-02-14T16:20:45;102130.47;;;12.55;74.77
46430;BME280;32131;53.454;-6.180;2023-02-14T16:23:23;102127.63;;;12.46;74.90
46430;BME280;32131;53.454;-6.180;2023-02-14T16:25:54;102122.19;;;12.38;75.11
46430;BME280;32131;53.454;-6.180;2023-02-14T16:28:28;102121.13;;;12.32;75.63
46430;BME280;32131;53.454;-6.180;2023-02-14T16:30:59;102117.97;;;12.13;75.97
46430;BME280;32131;53.454;-6.180;2023-02-14T16:33:34;102111.22;;;11.91;76.51
46430;BME280;32131;53.454;-6.180;2023-02-14T16:36:11;102102.69;;;11.66;77.27
46430;BME280;32131;53.454;-6.180;2023-02-14T16:38:43;102108.72;;;11.41;78.23
46430;BME280;32131;53.454;-6.180;2023-02-14T16:41:18;102124.34;;;11.18;79.57
46430;BME280;32131;53.454;-6.180;2023-02-14T16:43:52;102114.16;;;10.98;80.31
46430;BME280;32131;53.454;-6.180;2023-02-14T16:46:22;102117.00;;;10.82;81.04
46430;BME280;32131;53.454;-6.180;2023-02-14T16:48:52;102107.72;;;10.63;82.03
46430;BME280;32131;53.454;-6.180;2023-02-14T16:51:22;102118.34;;;10.48;82.69
46430;BME280;32131;53.454;-6.180;2023-02-14T16:53:56;102113.50;;;10.34;83.61
46430;BME280;32131;53.454;-6.180;2023-02-14T16:56:32;102120.78;;;10.22;84.12
46430;BME280;32131;53.454;-6.180;2023-02-14T16:59:04;102109.22;;;10.12;84.81
46430;BME280;32131;53.454;-6.180;2023-02-14T17:01:33;102107.97;;;10.02;85.35
46430;BME280;32131;53.454;-6.180;2023-02-14T17:04:03;102118.94;;;9.97;86.02
46430;BME280;32131;53.454;-6.180;2023-02-14T17:06:33;102099.50;;;9.84;86.66
46430;BME280;32131;53.454;-6.180;2023-02-14T17:09:05;102103.47;;;9.75;87.53
46430;BME280;32131;53.454;-6.180;2023-02-14T17:11:38;102106.44;;;9.64;88.09
46430;BME280;32131;53.454;-6.180;2023-02-14T17:14:11;102103.66;;;9.59;88.71
46430;BME280;32131;53.454;-6.180;2023-02-14T17:16:41;102110.19;;;9.51;89.46
46430;BME280;32131;53.454;-6.180;2023-02-14T17:19:12;102115.06;;;9.44;90.14
46430;BME280;32131;53.454;-6.180;2023-02-14T17:21:41;102114.00;;;9.39;90.59
46430;BME280;32131;53.454;-6.180;2023-02-14T17:24:09;102110.22;;;9.31;91.11
46430;BME280;32131;53.454;-6.180;2023-02-14T17:26:39;102107.47;;;9.26;91.64
46430;BME280;32131;53.454;-6.180;2023-02-14T17:29:08;102110.66;;;9.21;91.87
46430;BME280;32131;53.454;-6.180;2023-02-14T17:31:36;102107.00;;;9.16;92.38
46430;BME280;32131;53.454;-6.180;2023-02-14T17:34:04;102101.66;;;9.11;92.80
46430;BME280;32131;53.454;-6.180;2023-02-14T17:36:33;102106.59;;;9.06;93.10
46430;BME280;32131;53.454;-6.180;2023-02-14T17:39:03;102113.38;;;9.04;93.38
46430;BME280;32131;53.454;-6.180;2023-02-14T17:41:31;102113.38;;;9.04;93.42
46430;BME280;32131;53.454;-6.180;2023-02-14T17:44:01;102122.00;;;9.05;93.47
46430;BME280;32131;53.454;-6.180;2023-02-14T17:46:31;102113.31;;;9.03;93.66
46430;BME280;32131;53.454;-6.180;2023-02-14T17:49:00;102121.09;;;9.04;93.64
46430;BME280;32131;53.454;-6.180;2023-02-14T17:51:29;102127.97;;;9.04;93.42
46430;BME280;32131;53.454;-6.180;2023-02-14T17:53:58;102136.56;;;9.04;93.59
46430;BME280;32131;53.454;-6.180;2023-02-14T17:56:27;102133.94;;;9.03;93.53
46430;BME280;32131;53.454;-6.180;2023-02-14T17:58:55;102132.22;;;9.03;93.49
46430;BME280;32131;53.454;-6.180;2023-02-14T18:01:26;102137.31;;;9.02;93.46
46430;BME280;32131;53.454;-6.180;2023-02-14T18:03:57;102138.13;;;9.01;93.26
46430;BME280;32131;53.454;-6.180;2023-02-14T18:06:27;102138.06;;;8.99;93.18
46430;BME280;32131;53.454;-6.180;2023-02-14T18:08:59;102139.84;;;9.00;92.90
46430;BME280;32131;53.454;-6.180;2023-02-14T18:11:27;102135.44;;;8.98;92.73
46430;BME280;32131;53.454;-6.180;2023-02-14T18:13:56;102134.47;;;8.95;92.57
46430;BME280;32131;53.454;-6.180;2023-02-14T18:16:28;102141.09;;;8.90;92.56
46430;BME280;32131;53.454;-6.180;2023-02-14T18:19:00;102130.69;;;8.87;92.39
46430;BME280;32131;53.454;-6.180;2023-02-14T18:21:31;102125.38;;;8.84;92.22
46430;BME280;32131;53.454;-6.180;2023-02-14T18:24:01;102124.38;;;8.80;92.13
46430;BME280;32131;53.454;-6.180;2023-02-14T18:26:30;102131.06;;;8.77;91.95
46430;BME280;32131;53.454;-6.180;2023-02-14T18:29:00;102133.59;;;8.75;91.71
46430;BME280;32131;53.454;-6.180;2023-02-14T18:31:35;102135.16;;;8.72;91.57
46430;BME280;32131;53.454;-6.180;2023-02-14T18:34:04;102133.28;;;8.69;91.51
46430;BME280;32131;53.454;-6.180;2023-02-14T18:36:34;102135.00;;;8.69;90.82
46430;BME280;32131;53.454;-6.180;2023-02-14T18:39:04;102127.22;;;8.67;90.78
46430;BME280;32131;53.454;-6.180;2023-02-14T18:41:32;102119.47;;;8.67;90.59
46430;BME280;32131;53.454;-6.180;2023-02-14T18:44:02;102122.72;;;8.63;90.35
46430;BME280;32131;53.454;-6.180;2023-02-14T18:46:34;102116.34;;;8.55;90.51
46430;BME280;32131;53.454;-6.180;2023-02-14T18:49:04;102122.50;;;8.58;90.08
46430;BME280;32131;53.454;-6.180;2023-02-14T18:51:35;102108.75;;;8.58;89.55
46430;BME280;32131;53.454;-6.180;2023-02-14T18:54:05;102113.97;;;8.59;89.19
46430;BME280;32131;53.454;-6.180;2023-02-14T18:56:35;102117.28;;;8.57;89.10
46430;BME280;32131;53.454;-6.180;2023-02-14T18:59:06;102105.38;;;8.59;88.51
46430;BME280;32131;53.454;-6.180;2023-02-14T19:01:38;102103.72;;;8.61;87.95
46430;BME280;32131;53.454;-6.180;2023-02-14T19:04:09;102105.22;;;8.56;87.87
46430;BME280;32131;53.454;-6.180;2023-02-14T19:06:38;102105.38;;;8.59;87.31
46430;BME280;32131;53.454;-6.180;2023-02-14T19:09:09;102106.25;;;8.59;86.62
46430;BME280;32131;53.454;-6.180;2023-02-14T19:11:43;102111.41;;;8.59;86.40
46430;BME280;32131;53.454;-6.180;2023-02-14T19:14:12;102111.41;;;8.59;86.06
46430;BME280;32131;53.454;-6.180;2023-02-14T19:16:44;102104.47;;;8.58;86.09
46430;BME280;32131;53.454;-6.180;2023-02-14T19:19:17;102093.38;;;8.59;85.70
46430;BME280;32131;53.454;-6.180;2023-02-14T19:21:45;102092.72;;;8.63;85.08
46430;BME280;32131;53.454;-6.180;2023-02-14T19:24:15;102090.94;;;8.62;84.94
46430;BME280;32131;53.454;-6.180;2023-02-14T19:26:43;102096.22;;;8.65;84.41
46430;BME280;32131;53.454;-6.180;2023-02-14T19:29:14;102092.09;;;8.69;83.83
46430;BME280;32131;53.454;-6.180;2023-02-14T19:31:44;102087.13;;;8.74;83.05
46430;BME280;32131;53.454;-6.180;2023-02-14T19:34:15;102085.72;;;8.80;82.38
46430;BME280;32131;53.454;-6.180;2023-02-14T19:36:45;102082.56;;;8.86;81.35
46430;BME280;32131;53.454;-6.180;2023-02-14T19:39:14;102079.38;;;8.92;80.23
46430;BME280;32131;53.454;-6.180;2023-02-14T19:41:43;102071.63;;;8.92;79.90
46430;BME280;32131;53.454;-6.180;2023-02-14T19:44:14;102077.00;;;8.96;79.24
46430;BME280;32131;53.454;-6.180;2023-02-14T19:46:45;102082.91;;;8.94;79.24
46430;BME280;32131;53.454;-6.180;2023-02-14T19:49:15;102085.47;;;8.94;78.73
46430;BME280;32131;53.454;-6.180;2023-02-14T19:51:44;102086.19;;;8.91;78.96
46430;BME280;32131;53.454;-6.180;2023-02-14T19:54:14;102080.84;;;8.87;78.65
46430;BME280;32131;53.454;-6.180;2023-02-14T19:56:43;102082.50;;;8.85;78.50
46430;BME280;32131;53.454;-6.180;2023-02-14T19:59:13;102077.03;;;8.78;78.84
46430;BME280;32131;53.454;-6.180;2023-02-14T20:01:49;102090.56;;;8.73;78.90
46430;BME280;32131;53.454;-6.180;2023-02-14T20:04:19;102083.56;;;8.70;78.93
46430;BME280;32131;53.454;-6.180;2023-02-14T20:06:49;102090.19;;;8.65;79.26
46430;BME280;32131;53.454;-6.180;2023-02-14T20:09:18;102089.19;;;8.61;79.37
46430;BME280;32131;53.454;-6.180;2023-02-14T20:11:49;102096.00;;;8.61;79.13
46430;BME280;32131;53.454;-6.180;2023-02-14T20:14:21;102102.66;;;8.56;79.49
46430;BME280;32131;53.454;-6.180;2023-02-14T20:16:55;102093.91;;;8.52;79.79
46430;BME280;32131;53.454;-6.180;2023-02-14T20:19:25;102091.28;;;8.51;80.31
46430;BME280;32131;53.454;-6.180;2023-02-14T20:21:55;102097.16;;;8.48;80.31
46430;BME280;32131;53.454;-6.180;2023-02-14T20:24:24;102091.13;;;8.47;80.43
46430;BME280;32131;53.454;-6.180;2023-02-14T20:26:53;102085.19;;;8.48;80.63
46430;BME280;32131;53.454;-6.180;2023-02-14T20:29:23;102085.97;;;8.47;80.91
46430;BME280;32131;53.454;-6.180;2023-02-14T20:31:54;102087.75;;;8.48;81.14
46430;BME280;32131;53.454;-6.180;2023-02-14T20:34:26;102086.69;;;8.45;81.45
46430;BME280;32131;53.454;-6.180;2023-02-14T20:36:54;102077.06;;;8.41;81.93
46430;BME280;32131;53.454;-6.180;2023-02-14T20:39:27;102075.28;;;8.40;82.22
46430;BME280;32131;53.454;-6.180;2023-02-14T20:41:57;102077.00;;;8.39;82.58
46430;BME280;32131;53.454;-6.180;2023-02-14T20:44:25;102074.47;;;8.41;82.53
46430;BME280;32131;53.454;-6.180;2023-02-14T20:46:57;102056.47;;;8.41;82.27
46430;BME280;32131;53.454;-6.180;2023-02-14T20:49:26;102046.25;;;8.42;82.09
46430;BME280;32131;53.454;-6.180;2023-02-14T20:51:56;102054.78;;;8.41;82.10
46430;BME280;32131;53.454;-6.180;2023-02-14T20:54:25;102063.31;;;8.40;82.12
46430;BME280;32131;53.454;-6.180;2023-02-14T20:56:56;102058.31;;;8.43;81.89
46430;BME280;32131;53.454;-6.180;2023-02-14T20:59:25;102059.19;;;8.44;81.84
46430;BME280;32131;53.454;-6.180;2023-02-14T21:01:56;102053.03;;;8.40;81.94
46430;BME280;32131;53.454;-6.180;2023-02-14T21:04:26;102046.25;;;8.42;81.87
46430;BME280;32131;53.454;-6.180;2023-02-14T21:06:55;102053.03;;;8.40;82.00
46430;BME280;32131;53.454;-6.180;2023-02-14T21:09:25;102050.50;;;8.42;81.75
46430;BME280;32131;53.454;-6.180;2023-02-14T21:11:55;102051.25;;;8.39;81.82
46430;BME280;32131;53.454;-6.180;2023-02-14T21:14:24;102048.69;;;8.39;81.96
46430;BME280;32131;53.454;-6.180;2023-02-14T21:16:52;102051.25;;;8.39;81.73
46430;BME280;32131;53.454;-6.180;2023-02-14T21:19:22;102039.94;;;8.36;81.90
46430;BME280;32131;53.454;-6.180;2023-02-14T21:21:53;102041.50;;;8.32;81.81
46430;BME280;32131;53.454;-6.180;2023-02-14T21:24:22;102035.44;;;8.31;81.60
46430;BME280;32131;53.454;-6.180;2023-02-14T21:26:51;102014.88;;;8.31;81.54
46430;BME280;32131;53.454;-6.180;2023-02-14T21:29:19;102019.19;;;8.32;81.28
46430;BME280;32131;53.454;-6.180;2023-02-14T21:31:48;102015.69;;;8.30;81.18
46430;BME280;32131;53.454;-6.180;2023-02-14T21:34:16;101998.34;;;8.26;81.35
46430;BME280;32131;53.454;-6.180;2023-02-14T21:36:45;102001.53;;;8.21;81.64
46430;BME280;32131;53.454;-6.180;2023-02-14T21:39:14;101999.69;;;8.18;81.77
46430;BME280;32131;53.454;-6.180;2023-02-14T21:41:43;101992.66;;;8.14;82.01
46430;BME280;32131;53.454;-6.180;2023-02-14T21:44:11;101988.31;;;8.13;82.58
46430;BME280;32131;53.454;-6.180;2023-02-14T21:46:59;101997.66;;;8.11;82.88
46430;BME280;32131;53.454;-6.180;2023-02-14T21:49:28;101983.63;;;8.04;83.06
46430;BME280;32131;53.454;-6.180;2023-02-14T21:52:15;101992.09;;;8.01;82.94
46430;BME280;32131;53.454;-6.180;2023-02-14T21:54:43;101993.09;;;8.05;82.63
46430;BME280;32131;53.454;-6.180;2023-02-14T21:57:11;101988.78;;;8.04;82.17
46430;BME280;32131;53.454;-6.180;2023-02-14T21:59:40;101992.94;;;8.02;82.05
46430;BME280;32131;53.454;-6.180;2023-02-14T22:02:10;101992.84;;;7.99;81.40
46430;BME280;32131;53.454;-6.180;2023-02-14T22:04:39;101993.78;;;8.01;80.85
46430;BME280;32131;53.454;-6.180;2023-02-14T22:07:09;101992.16;;;8.03;80.43
46430;BME280;32131;53.454;-6.180;2023-02-14T22:09:39;101996.47;;;8.04;80.39
46430;BME280;32131;53.454;-6.180;2023-02-14T22:12:07;101995.63;;;8.03;80.35
46430;BME280;32131;53.454;-6.180;2023-02-14T22:14:35;101995.75;;;8.07;80.45
46430;BME280;32131;53.454;-6.180;2023-02-14T22:17:03;101997.50;;;8.08;80.50
46430;BME280;32131;53.454;-6.180;2023-02-14T22:19:31;101993.84;;;8.02;80.66
46430;BME280;32131;53.454;-6.180;2023-02-14T22:22:01;101996.38;;;8.01;81.49
46430;BME280;32131;53.454;-6.180;2023-02-14T22:24:30;101992.84;;;7.99;82.10
46430;BME280;32131;53.454;-6.180;2023-02-14T22:27:00;101971.03;;;7.91;83.34
46430;BME280;32131;53.454;-6.180;2023-02-14T22:29:29;101977.84;;;7.90;84.30
46430;BME280;32131;53.454;-6.180;2023-02-14T22:31:58;101970.94;;;7.89;84.67
46430;BME280;32131;53.454;-6.180;2023-02-14T22:34:26;101970.75;;;7.84;84.54
46430;BME280;32131;53.454;-6.180;2023-02-14T22:36:55;101966.69;;;7.90;83.25
46430;BME280;32131;53.454;-6.180;2023-02-14T22:39:24;101967.75;;;7.95;83.23
46430;BME280;32131;53.454;-6.180;2023-02-14T22:41:52;101959.19;;;7.94;82.47
46430;BME280;32131;53.454;-6.180;2023-02-14T22:44:29;101960.84;;;7.94;82.34
46430;BME280;32131;53.454;-6.180;2023-02-14T22:46:59;101950.56;;;7.94;81.70
46430;BME280;32131;53.454;-6.180;2023-02-14T22:49:28;101955.66;;;7.92;81.19
46430;BME280;32131;53.454;-6.180;2023-02-14T22:51:57;101953.16;;;7.94;80.77
46430;BME280;32131;53.454;-6.180;2023-02-14T22:54:26;101940.97;;;7.90;80.48
46430;BME280;32131;53.454;-6.180;2023-02-14T22:56:54;101941.94;;;7.92;79.73
46430;BME280;32131;53.454;-6.180;2023-02-14T22:59:23;101942.00;;;7.93;78.68
46430;BME280;32131;53.454;-6.180;2023-02-14T23:01:54;101943.69;;;7.93;78.17
46430;BME280;32131;53.454;-6.180;2023-02-14T23:04:23;101941.25;;;7.96;76.84
46430;BME280;32131;53.454;-6.180;2023-02-14T23:06:51;101943.97;;;7.99;76.06
46430;BME280;32131;53.454;-6.180;2023-02-14T23:09:22;101939.78;;;8.01;75.26
46430;BME280;32131;53.454;-6.180;2023-02-14T23:11:51;101947.69;;;8.06;74.54
46430;BME280;32131;53.454;-6.180;2023-02-14T23:14:19;101941.06;;;8.11;73.65
46430;BME280;32131;53.454;-6.180;2023-02-14T23:17:12;101938.53;;;8.12;73.61
46430;BME280;32131;53.454;-6.180;2023-02-14T23:19:59;101938.44;;;8.09;73.47
46430;BME280;32131;53.454;-6.180;2023-02-14T23:22:45;101938.28;;;8.06;73.53
46430;BME280;32131;53.454;-6.180;2023-02-14T23:25:14;101936.50;;;8.05;73.40
46430;BME280;32131;53.454;-6.180;2023-02-14T23:27:43;101936.38;;;8.02;73.32
46430;BME280;32131;53.454;-6.180;2023-02-14T23:30:16;101930.28;;;8.00;73.21
46430;BME280;32131;53.454;-6.180;2023-02-14T23:32:46;101928.59;;;8.00;73.34
46430;BME280;32131;53.454;-6.180;2023-02-14T23:35:15;101917.56;;;8.03;73.03
46430;BME280;32131;53.454;-6.180;2023-02-14T23:37:43;101920.06;;;8.01;72.92
46430;BME280;32131;53.454;-6.180;2023-02-14T23:40:12;101914.91;;;8.01;72.86
46430;BME280;32131;53.454;-6.180;2023-02-14T23:42:40;101914.88;;;8.00;72.59
46430;BME280;32131;53.454;-6.180;2023-02-14T23:45:08;101896.97;;;8.03;72.13
46430;BME280;32131;53.454;-6.180;2023-02-14T23:48:00;101904.03;;;8.07;71.27
46430;BME280;32131;53.454;-6.180;2023-02-14T23:50:28;101889.41;;;8.06;71.21
46430;BME280;32131;53.454;-6.180;2023-02-14T23:52:57;101888.59;;;8.07;71.12
46430;BME280;32131;53.454;-6.180;2023-02-14T23:55:26;101886.13;;;8.10;71.11
46430;BME280;32131;53.454;-6.180;2023-02-14T23:57:54;101883.44;;;8.07;71.23
